createdAt,value
2022-08-17T00:03:17.239Z,10.35
2022-08-17T00:06:31.700Z,10.63
2022-08-17T00:09:37.720Z,10.65
2022-08-17T00:12:45.859Z,9.63
2022-08-17T00:15:52.952Z,10.48
2022-08-17T00:19:08.249Z,10.73
2022-08-17T00:22:30.964Z,10.30
2022-08-17T00:25:42.382Z,9.75
2022-08-17T00:28:47.898Z,10.32
2022-08-17T00:31:54.056Z,10.35
2022-08-17T00:34:59.636Z,10.45
2022-08-17T00:38:09.962Z,10.48
2022-08-17T00:41:20.369Z,9.57
2022-08-17T00:44:30.355Z,9.60
2022-08-17T00:47:37.102Z,9.65
2022-08-17T00:50:52.706Z,10.55
2022-08-17T00:54:15.584Z,9.65
2022-08-17T00:57:26.975Z,9.20
2022-08-17T01:00:50.653Z,10.15
2022-08-17T01:03:59.756Z,10.05
2022-08-17T01:07:06.449Z,10.60
2022-08-17T01:10:58.953Z,9.77
2022-08-17T01:13:43.441Z,9.88
2022-08-17T01:16:50.982Z,10.60
2022-08-17T01:19:56.882Z,10.13
2022-08-17T01:23:02.276Z,9.63
2022-08-17T01:26:08.775Z,9.48
2022-08-17T01:29:15.084Z,9.75
2022-08-17T01:32:20.487Z,9.95
2022-08-17T01:35:26.141Z,9.52
2022-08-17T01:38:32.137Z,10.02
2022-08-17T01:41:38.920Z,9.85
2022-08-17T01:44:44.632Z,9.95
2022-08-17T01:47:51.396Z,10.02
2022-08-17T01:50:57.102Z,10.52
2022-08-17T01:54:07.543Z,9.68
2022-08-17T01:57:13.959Z,10.00
2022-08-17T02:00:19.958Z,10.43
2022-08-17T02:03:26.221Z,10.10
2022-08-17T02:06:45.167Z,10.30
2022-08-17T02:09:58.998Z,10.15
2022-08-17T02:13:06.058Z,10.48
2022-08-17T02:16:11.976Z,10.45
2022-08-17T02:19:18.245Z,10.23
2022-08-17T02:22:26.215Z,10.20
2022-08-17T02:25:33.478Z,9.60
2022-08-17T02:28:39.454Z,9.70
2022-08-17T02:31:44.745Z,10.55
2022-08-17T02:34:50.666Z,9.98
2022-08-17T02:37:56.274Z,10.23
2022-08-17T02:41:02.150Z,9.45
2022-08-17T02:44:08.480Z,10.38
2022-08-17T02:47:14.089Z,9.88
2022-08-17T02:50:23.473Z,9.98
2022-08-17T02:53:35.576Z,10.68
2022-08-17T02:56:41.817Z,10.10
2022-08-17T02:59:49.118Z,9.82
2022-08-17T03:02:57.160Z,10.20
2022-08-17T03:06:03.466Z,9.82
2022-08-17T03:09:09.536Z,9.48
2022-08-17T03:12:15.279Z,10.10
2022-08-17T03:15:33.690Z,9.27
2022-08-17T03:18:39.425Z,9.25
2022-08-17T03:21:45.581Z,9.55
2022-08-17T03:24:51.029Z,9.65
2022-08-17T03:27:57.402Z,9.98
2022-08-17T03:31:07.770Z,9.20
2022-08-17T03:34:20.369Z,9.73
2022-08-17T03:37:28.504Z,9.20
2022-08-17T03:40:58.639Z,9.38
2022-08-17T03:44:02.765Z,9.73
2022-08-17T03:47:27.820Z,9.80
2022-08-17T03:50:53.438Z,9.10
2022-08-17T03:54:18.610Z,9.73
2022-08-17T03:57:33.135Z,9.93
2022-08-17T04:00:40.913Z,9.48
2022-08-17T04:03:46.839Z,9.30
2022-08-17T04:06:52.382Z,9.40
2022-08-17T04:09:59.479Z,9.07
2022-08-17T04:13:06.082Z,9.77
2022-08-17T04:16:11.338Z,9.68
2022-08-17T04:19:18.287Z,9.73
2022-08-17T04:22:31.938Z,9.88
2022-08-17T04:25:45.515Z,10.18
2022-08-17T04:28:52.425Z,9.80
2022-08-17T04:31:58.445Z,9.90
2022-08-17T04:35:04.312Z,9.57
2022-08-17T04:38:13.366Z,8.90
2022-08-17T04:41:37.274Z,9.32
2022-08-17T04:44:44.360Z,10.10
2022-08-17T04:47:49.923Z,8.75
2022-08-17T04:50:55.521Z,10.20
2022-08-17T04:54:09.141Z,9.85
2022-08-17T04:57:14.712Z,9.85
2022-08-17T05:00:20.482Z,9.30
2022-08-17T05:03:26.707Z,9.73
2022-08-17T05:06:32.729Z,10.15
2022-08-17T05:09:38.659Z,9.85
2022-08-17T05:12:44.163Z,9.50
2022-08-17T05:15:55.947Z,10.23
2022-08-17T05:19:03.242Z,9.48
2022-08-17T05:22:09.103Z,9.70
2022-08-17T05:25:15.376Z,9.70
2022-08-17T05:28:24.093Z,10.07
2022-08-17T05:31:33.778Z,10.45
2022-08-17T05:34:40.128Z,9.93
2022-08-17T05:37:46.965Z,10.00
2022-08-17T05:40:54.646Z,10.35
2022-08-17T05:44:00.556Z,10.45
2022-08-17T05:47:13.166Z,10.60
2022-08-17T05:50:29.901Z,10.00
2022-08-17T05:53:35.997Z,10.82
2022-08-17T05:57:21.078Z,10.63
2022-08-17T06:01:04.359Z,10.60
2022-08-17T06:05:15.719Z,10.23
2022-08-17T06:08:54.199Z,10.52
2022-08-17T06:12:21.628Z,11.55
2022-08-17T06:16:05.317Z,9.93
2022-08-17T06:19:46.837Z,11.02
2022-08-17T06:23:04.139Z,10.75
2022-08-17T06:26:22.033Z,10.98
2022-08-17T06:30:00.027Z,11.82
2022-08-17T06:33:22.960Z,11.18
2022-08-17T06:37:09.286Z,11.88
2022-08-17T06:40:27.045Z,10.18
2022-08-17T06:44:07.998Z,11.00
2022-08-17T06:47:45.548Z,11.27
2022-08-17T06:51:04.096Z,11.30
2022-08-17T06:54:39.020Z,10.20
2022-08-17T06:57:54.661Z,11.32
2022-08-17T07:01:25.331Z,10.90
2022-08-17T07:04:32.459Z,11.60
2022-08-17T07:07:59.005Z,10.68
2022-08-17T07:11:14.300Z,11.07
2022-08-17T07:14:36.860Z,12.00
2022-08-17T07:17:47.720Z,12.13
2022-08-17T07:20:58.429Z,12.00
2022-08-17T07:24:30.396Z,12.18
2022-08-17T07:27:45.865Z,11.73
2022-08-17T07:30:54.303Z,10.85
2022-08-17T07:34:07.033Z,12.38
2022-08-17T07:37:12.965Z,12.32
2022-08-17T07:40:33.564Z,12.13
2022-08-17T07:43:42.487Z,12.20
2022-08-17T07:47:10.363Z,12.15
2022-08-17T07:50:30.112Z,12.68
2022-08-17T07:53:37.060Z,12.30
2022-08-17T07:56:55.185Z,12.02
2022-08-17T08:00:17.093Z,13.10
2022-08-17T08:03:32.218Z,13.18
2022-08-17T08:06:53.069Z,12.63
2022-08-17T08:10:11.653Z,12.93
2022-08-17T08:13:29.010Z,13.23
2022-08-17T08:16:35.491Z,13.07
2022-08-17T08:19:41.655Z,11.40
2022-08-17T08:23:04.271Z,12.48
2022-08-17T08:27:01.593Z,11.98
2022-08-17T08:30:16.941Z,12.60
2022-08-17T08:34:05.503Z,12.35
2022-08-17T08:37:40.628Z,12.23
2022-08-17T08:41:16.733Z,12.15
2022-08-17T08:45:00.323Z,12.40
2022-08-17T08:48:53.000Z,13.05
2022-08-17T08:52:04.598Z,13.95
2022-08-17T08:55:51.821Z,12.63
2022-08-17T08:59:23.160Z,12.30
2022-08-17T09:02:56.251Z,13.23
2022-08-17T09:06:41.181Z,14.00
2022-08-17T09:10:31.864Z,12.73
2022-08-17T09:13:54.516Z,10.38
2022-08-17T09:17:06.281Z,13.00
2022-08-17T09:20:36.386Z,12.65
2022-08-17T09:24:02.520Z,11.27
2022-08-17T09:27:51.390Z,11.00
2022-08-17T09:31:03.371Z,12.25
2022-08-17T09:34:16.344Z,10.73
2022-08-17T09:37:31.102Z,11.65
2022-08-17T09:40:53.546Z,9.85
2022-08-17T09:44:23.381Z,12.30
2022-08-17T09:47:46.905Z,12.63
2022-08-17T09:51:07.203Z,11.68
2022-08-17T09:54:39.957Z,12.32
2022-08-17T09:58:29.062Z,11.98
2022-08-17T10:01:46.374Z,11.35
2022-08-17T10:05:33.989Z,10.35
2022-08-17T10:09:09.211Z,10.63
2022-08-17T10:12:33.330Z,10.07
2022-08-17T10:15:57.327Z,10.98
2022-08-17T10:20:03.729Z,11.60
2022-08-17T10:23:41.752Z,10.82
2022-08-17T10:26:56.128Z,11.48
2022-08-17T10:30:05.669Z,11.40
2022-08-17T10:33:21.168Z,11.18
2022-08-17T10:36:59.793Z,11.50
2022-08-17T10:40:32.133Z,11.10
2022-08-17T10:44:36.976Z,11.80
2022-08-17T10:47:20.019Z,12.07
2022-08-17T10:51:02.957Z,10.77
2022-08-17T10:54:41.613Z,11.18
2022-08-17T10:57:50.781Z,11.32
2022-08-17T11:00:59.578Z,11.23
2022-08-17T11:04:21.615Z,10.75
2022-08-17T11:08:12.045Z,11.85
2022-08-17T11:11:58.420Z,11.88
2022-08-17T11:16:09.173Z,11.35
2022-08-17T11:20:11.554Z,12.30
2022-08-17T11:23:26.662Z,11.45
2022-08-17T11:26:35.969Z,11.68
2022-08-17T11:29:56.759Z,10.70
2022-08-17T11:33:30.429Z,14.43
2022-08-17T11:37:16.097Z,21.98
2022-08-17T11:40:44.855Z,9.63
2022-08-17T11:44:29.355Z,9.80
2022-08-17T11:48:35.782Z,9.80
2022-08-17T11:52:14.124Z,9.73
2022-08-17T11:55:38.542Z,10.60
2022-08-17T11:58:48.940Z,10.52
2022-08-17T12:01:57.541Z,11.40
2022-08-17T12:05:17.017Z,11.15
2022-08-17T12:08:23.786Z,10.90
2022-08-17T12:12:13.409Z,13.48
2022-08-17T12:15:30.826Z,11.90
2022-08-17T12:18:39.685Z,12.48
2022-08-17T12:21:54.470Z,12.27
2022-08-17T12:25:20.986Z,13.20
2022-08-17T12:28:35.924Z,13.57
2022-08-17T12:31:51.121Z,14.68
2022-08-17T12:35:11.736Z,16.65
2022-08-17T12:38:32.018Z,15.55
2022-08-17T12:41:56.304Z,15.23
2022-08-17T12:46:13.008Z,15.73
2022-08-17T12:49:43.670Z,16.80
2022-08-17T12:53:01.736Z,16.33
2022-08-17T12:56:14.964Z,15.68
2022-08-17T12:59:38.926Z,15.85
2022-08-17T13:03:26.493Z,16.80
2022-08-17T13:06:52.490Z,15.63
2022-08-17T13:10:43.291Z,15.10
2022-08-17T13:13:57.736Z,13.70
2022-08-17T13:17:13.608Z,14.32
2022-08-17T13:20:34.422Z,14.55
2022-08-17T13:24:22.279Z,15.00
2022-08-17T13:27:32.296Z,14.75
2022-08-17T13:30:40.732Z,14.55
2022-08-17T13:33:49.350Z,15.27
2022-08-17T13:37:33.116Z,15.43
2022-08-17T13:40:50.870Z,16.30
2022-08-17T13:44:00.448Z,19.50
2022-08-17T13:47:20.471Z,18.35
2022-08-17T13:50:30.873Z,17.13
2022-08-17T13:53:37.745Z,17.67
2022-08-17T13:57:01.917Z,17.13
2022-08-17T14:00:33.931Z,19.02
2022-08-17T14:03:42.573Z,17.50
2022-08-17T14:07:13.256Z,16.27
2022-08-17T14:10:19.145Z,15.63
2022-08-17T14:13:25.164Z,15.68
2022-08-17T14:16:31.378Z,15.05
2022-08-17T14:19:37.596Z,14.70
2022-08-17T14:22:47.466Z,14.32
2022-08-17T14:25:53.407Z,14.02
2022-08-17T14:28:59.594Z,13.60
2022-08-17T14:32:37.374Z,14.40
2022-08-17T14:35:43.390Z,13.30
2022-08-17T14:38:49.307Z,13.93
2022-08-17T14:41:58.639Z,14.02
2022-08-17T14:45:07.690Z,14.02
2022-08-17T14:48:38.696Z,13.80
2022-08-17T14:51:44.862Z,15.32
2022-08-17T14:54:53.039Z,14.45
2022-08-17T14:57:59.191Z,14.93
2022-08-17T15:01:08.058Z,14.18
2022-08-17T15:04:18.618Z,14.18
2022-08-17T15:07:30.281Z,13.85
2022-08-17T15:10:37.822Z,13.73
2022-08-17T15:13:53.035Z,14.23
2022-08-17T15:16:59.911Z,14.63
2022-08-17T15:20:14.739Z,13.32
2022-08-17T15:23:23.209Z,12.77
2022-08-17T15:26:29.460Z,13.05
2022-08-17T15:29:35.551Z,13.45
2022-08-17T15:32:50.639Z,13.15
2022-08-17T15:36:03.686Z,13.07
2022-08-17T15:39:09.441Z,13.18
2022-08-17T15:42:16.369Z,13.70
2022-08-17T15:45:26.864Z,13.75
2022-08-17T15:48:41.708Z,12.98
2022-08-17T15:51:48.103Z,13.05
2022-08-17T15:54:57.614Z,13.77
2022-08-17T15:58:04.172Z,13.63
2022-08-17T16:01:14.658Z,13.05
2022-08-17T16:04:30.029Z,14.55
2022-08-17T16:07:37.300Z,13.15
2022-08-17T16:10:43.030Z,14.20
2022-08-17T16:13:55.044Z,14.52
2022-08-17T16:17:03.728Z,14.48
2022-08-17T16:20:20.566Z,13.55
2022-08-17T16:23:27.356Z,13.70
2022-08-17T16:26:41.877Z,14.20
2022-08-17T16:29:50.079Z,14.60
2022-08-17T16:33:02.317Z,13.73
2022-08-17T16:36:08.952Z,13.45
2022-08-17T16:39:19.360Z,13.65
2022-08-17T16:42:36.509Z,13.45
2022-08-17T16:45:45.561Z,12.88
2022-08-17T16:49:07.749Z,11.93
2022-08-17T16:52:32.885Z,12.40
2022-08-17T16:55:39.831Z,12.63
2022-08-17T16:58:46.410Z,11.57
2022-08-17T17:02:04.415Z,10.93
2022-08-17T17:05:38.661Z,10.50
2022-08-17T17:08:59.549Z,10.77
2022-08-17T17:12:10.671Z,9.82
2022-08-17T17:15:22.157Z,10.57
2022-08-17T17:19:14.552Z,11.20
2022-08-17T17:22:27.934Z,12.10
2022-08-17T17:25:45.302Z,11.70
2022-08-17T17:29:48.113Z,11.80
2022-08-17T17:33:20.443Z,10.82
2022-08-17T17:36:41.564Z,11.57
2022-08-17T17:39:53.453Z,11.43
2022-08-17T17:43:20.523Z,11.93
2022-08-17T17:46:38.198Z,11.18
2022-08-17T17:49:48.795Z,10.60
2022-08-17T17:53:07.670Z,10.60
2022-08-17T17:56:44.114Z,10.50
2022-08-17T17:59:57.824Z,10.02
2022-08-17T18:03:25.536Z,10.25
2022-08-17T18:06:37.172Z,10.20
2022-08-17T18:10:29.463Z,10.10
2022-08-17T18:13:50.944Z,9.77
2022-08-17T18:17:08.513Z,10.20
2022-08-17T18:24:05.201Z,10.25
2022-08-17T18:27:31.278Z,9.70
2022-08-17T18:30:39.068Z,9.70
2022-08-17T18:34:46.581Z,10.40
2022-08-17T18:38:24.217Z,10.25
2022-08-17T18:41:55.031Z,10.20
2022-08-17T18:45:05.587Z,10.18
2022-08-17T18:48:26.872Z,10.10
2022-08-17T18:52:06.092Z,10.05
2022-08-17T18:55:31.381Z,10.40
2022-08-17T18:58:41.584Z,9.85
2022-08-17T19:02:41.814Z,10.20
2022-08-17T19:05:55.093Z,10.38
2022-08-17T19:09:03.547Z,9.73
2022-08-17T19:12:44.149Z,10.85
2022-08-17T19:16:13.109Z,9.95
2022-08-17T19:19:38.978Z,10.88
2022-08-17T19:23:11.666Z,10.40
2022-08-17T19:26:53.741Z,10.50
2022-08-17T19:30:11.488Z,10.40
2022-08-17T19:33:17.677Z,10.40
2022-08-17T19:36:39.777Z,9.73
2022-08-17T19:40:54.042Z,10.13
2022-08-17T19:44:38.957Z,10.18
2022-08-17T19:48:07.284Z,10.05
2022-08-17T19:51:30.032Z,10.88
2022-08-17T19:54:59.285Z,10.18
2022-08-17T19:58:32.117Z,10.93
2022-08-17T20:02:04.484Z,10.35
2022-08-17T20:05:26.632Z,10.48
2022-08-17T20:09:05.513Z,9.90
2022-08-17T20:12:35.894Z,9.98
2022-08-17T20:15:52.508Z,10.02
2022-08-17T20:19:05.604Z,9.88
2022-08-17T20:22:17.949Z,10.40
2022-08-17T20:25:52.296Z,10.70
2022-08-17T20:29:17.216Z,9.63
2022-08-17T20:32:35.507Z,9.45
2022-08-17T20:36:24.540Z,10.55
2022-08-17T20:40:09.607Z,10.05
2022-08-17T20:43:34.218Z,9.63
2022-08-17T20:47:17.656Z,9.82
2022-08-17T20:50:31.985Z,10.20
2022-08-17T20:53:49.837Z,10.15
2022-08-17T20:57:02.101Z,10.10
2022-08-17T21:00:41.674Z,9.10
2022-08-17T21:03:54.055Z,8.50
2022-08-17T21:07:52.903Z,8.70
2022-08-17T21:11:00.503Z,8.48
2022-08-17T21:14:24.469Z,8.82
2022-08-17T21:18:07.105Z,8.13
2022-08-17T21:21:34.946Z,9.35
2022-08-17T21:25:21.069Z,11.00
2022-08-17T21:29:17.883Z,10.18
2022-08-17T21:32:35.955Z,9.60
2022-08-17T21:36:15.428Z,11.00
2022-08-17T21:39:34.005Z,9.82
2022-08-17T21:43:08.559Z,9.63
2022-08-17T21:46:37.359Z,10.35
2022-08-17T21:49:43.794Z,10.38
2022-08-17T21:52:54.356Z,9.93
2022-08-17T21:56:00.493Z,10.55
2022-08-17T21:59:28.814Z,10.75
2022-08-17T22:02:37.970Z,10.88
2022-08-17T22:05:43.824Z,10.20
2022-08-17T22:09:13.857Z,10.60
2022-08-17T22:12:26.009Z,9.98
2022-08-17T22:15:35.819Z,10.18
2022-08-17T22:18:46.638Z,10.15
2022-08-17T22:22:10.557Z,10.80
2022-08-17T22:25:22.467Z,10.25
2022-08-17T22:28:39.927Z,9.45
2022-08-17T22:31:57.453Z,9.23
2022-08-17T22:35:29.588Z,9.13
2022-08-17T22:38:35.520Z,9.63
2022-08-17T22:41:50.755Z,9.80
2022-08-17T22:44:57.338Z,10.18
2022-08-17T22:48:03.098Z,9.43
2022-08-17T22:51:15.293Z,9.75
2022-08-17T22:54:56.365Z,8.77
2022-08-17T22:58:32.531Z,9.55
2022-08-17T23:01:45.724Z,9.43
2022-08-17T23:05:14.542Z,9.88
2022-08-17T23:08:25.888Z,9.43
2022-08-17T23:11:49.143Z,9.50
2022-08-17T23:15:08.508Z,9.80
2022-08-17T23:18:18.241Z,9.70
2022-08-17T23:21:29.726Z,9.38
2022-08-17T23:24:45.446Z,9.18
2022-08-17T23:27:51.251Z,9.57
2022-08-17T23:30:57.282Z,9.57
2022-08-17T23:34:10.447Z,10.27
2022-08-17T23:37:18.741Z,9.52
2022-08-17T23:40:24.991Z,9.50
2022-08-17T23:46:55.230Z,10.15
2022-08-17T23:50:01.805Z,9.68
2022-08-17T23:53:08.339Z,9.70
2022-08-17T23:56:15.310Z,9.50
2022-08-17T23:59:23.162Z,9.73
